Nimbus Weather Services

Informe meteorológico para Carrasco, Uruguay. El informe se hizo hace 54 minutos, a las 11:00 UTC. El viento soplaba a una velocidad de 1.5 m/s (3.5 millas por hora) del norte (350°). La temperatura era 9 °C (48 °F), con un punto de rocío de 5 °C (41 °F). La presión atmosférica era 1020 hPa (30.12 inHg). Había una humedad relativa del 76.0%. Cielo: sin nubes por debajo de 1500 metros (5000 pies) y sin presencia de cumulusnimbos. En aquel momento la visibilidad global era mayor de 10 kilómetros (6.2 millas).

La clave METAR es: SUMU 231100Z 35003KT CAVOK 09/05 Q1020 NOSIG

Consulta realizada el Domingo 23 de Abril de 2017 8:53. Tiempo usado para generar esta pagina:1,037 ms.